Lowake, Texas
Current Conditions -  °F | °C
As of 12:51 PM on Sunday 23 Nov 2014 (Local Time) from KSJT Reporting Station
Clear Clear  
Wind Chill: 75°   Ceiling: Unl
Heat Index: 75°   Visibility: 10mi
Dew Point: 28°   Wind: 23mph
Humidity: 18%   Direction: 270°W
Pressure: 29.61"   Gusts: 35mph
Location:  31.57°N, 100.08°W
Report Text: KSJT 231851Z 27020G30KT 10SM CLR 24/M02 A2961 RMK AO2 PK WND 26030/1828 SLP012 T02391022
Loading
Personal Weather Stations






























Interactive Weather Map New forecast layout! Learn more

10-Day Weather Forecast

Advertisements
Track Severe Weather on mobile